No particular awareness of the weather is required.    There are no Weather-warnings

Karlovy Vary SW more information Karlovy Vary SW


Karlovy Vary ESE more information Karlovy Vary ESE


Thunder radar more information blitzortung!


Rain radar more information rain snow radar


Visit our other weather sites:

Template documentation
and downloads

My WDL Site

WX

iWDL

MeteoWare Live



Nearby METAR Reports

  
LKKV - Karlovy Vary, Czech Republic
Distance from station: ESE 6km
Updated: 24.02.2018 20:00
Partly Cloudy
Partly Cloudy  
 Wind from ENE
Wind: ENE 19 km/h
Temperature:  -8°C
Wind Chill:  -15°C
Dew Point:  -14°C
Humidity:  62%
Barometer:  1023 hPa
Clouds:  Partly Cloudy
Visibility:  10 km
Cloud details:  Partly Cloudy 1006 m
2018/02/24 19:00 LKKV 241900Z 06010KT 9999 SCT033 M08/M14 Q1023
LKLN - Plzeň, Czech Republic
Distance from station: SSE 68km
Updated: 24.02.2018 20:00
Clear
Clear  
 Wind from NE
Wind: NE 11 km/h
Temperature:  -6°C
Wind Chill:  -11°C
Dew Point:  -12°C
Humidity:  63%
Barometer:  1025 hPa
Summary:  Clear
Visibility:  greater than 10 km
2018/02/24 19:00 LKLN 241900Z AUTO 05006KT 010V070 CAVOK M06/M12 Q1025
EDAC - Altenburg-Nobitz, Germany
Distance from station: NNW 87km
Updated: 24.02.2018 16:50
NOT Current
Partly Cloudy
Partly Cloudy  
 Wind from NE
Wind: NE 22 km/h, Gust: 41 km/h
Temperature:  -1°C
Wind Chill:  -7°C
Dew Point:  -12°C
Humidity:  43%
Barometer:  1026 hPa
Clouds:  Partly Cloudy
Visibility:  10 km
Cloud details:  Partly Cloudy 1372 m
2018/02/24 15:50 EDAC 241550Z 05012G22KT 020V080 9999 SCT045 M01/M12 Q1026
ETIC - Grafenwöhr, Germany
Distance from station: SW 88km
Updated: 24.02.2018 19:56
Clear
Clear  
 Wind from E
Wind: E 22 km/h, Gust: 30 km/h
Temperature:  -5°C
Wind Chill:  -12°C
Dew Point:  -13°C
Humidity:  54%
Barometer:  1023.7 hPa
Clouds:  Clear
Visibility:  10 km
2018/02/24 18:56 ETIC 241856Z AUTO 08012G16KT 9999 CLR M05/M13 A3023 RMK AO2 SLP275 T10511132 FZRANO $
LKPR - Prague/Ruzyne, Czech Republic
Distance from station: E 103km
Updated: 24.02.2018 20:30
Few Clouds
Few Clouds  
 Wind from NE
Wind: NE 17 km/h
Temperature:  -7°C
Wind Chill:  -13°C
Dew Point:  -13°C
Humidity:  63%
Barometer:  1026 hPa
Clouds:  Few Clouds
Visibility:  10 km
Cloud details:  Few Clouds 1097 m
2018/02/24 19:30 LKPR 241930Z 05009KT 9999 FEW036 M07/M13 Q1026 NOSIG
EDQM - Hof, Germany
Distance from station: W 71km
Updated: 24.02.2018 17:50
NOT Current
Clear
Clear  
 Wind from NE
Wind: NE 26 km/h, Gust: 44 km/h
Temperature:  -5°C
Wind Chill:  -12°C
Dew Point:  -15°C
Humidity:  46%
Barometer:  1022 hPa
Summary:  Clear
Visibility:  greater than 10 km
2018/02/24 16:50 EDQM 241650Z 04014G24KT CAVOK M05/M15 Q1022

Script developed by  Saratoga-weather.org Adapted for the template by  Weerstation Leuven

Equipment we use:


Weather-station
TFA Nexus

Weather-program
Meteohub

Weather-server
SilverStone DC01

Provider
WIA

TFA Nexus

Meteohub

SilverStone DC01

WIA